Time;durP1;ratioP1;P1;durP2;ratioP2;P2;SDS_P1;SDS_P2;PMS_P1;PMS_P2;Temp;Humidity;BMP_temperature;BMP_pressure;BME280_temperature;BME280_humidity;BME280_pressure;Samples;Min_cycle;Max_cycle;Signal;HPM_P1;HPM_P2
2022/08/28 00:00:36;;;;;;;10.52;3.22;;;14.50;99.90;;;;;;6313097;22;20029;-94
2022/08/28 00:03:03;;;;;;;10.68;2.80;;;14.50;99.90;;;;;;6284783;22;20074;-92
2022/08/28 00:05:31;;;;;;;10.85;3.13;;;14.50;99.90;;;;;;6284716;22;20056;-93
2022/08/28 00:07:59;;;;;;;10.27;2.67;;;14.40;99.90;;;;;;6307956;22;20015;-86
2022/08/28 00:10:25;;;;;;;9.93;3.08;;;14.40;99.90;;;;;;6311205;22;20431;-88
2022/08/28 00:12:54;;;;;;;11.43;2.85;;;14.40;99.90;;;;;;6339006;22;20098;-88
2022/08/28 00:15:25;;;;;;;9.48;2.50;;;14.40;99.90;;;;;;6285383;22;20026;-88
2022/08/28 00:17:51;;;;;;;12.77;3.50;;;14.40;99.90;;;;;;6312177;22;20068;-91
2022/08/28 00:20:19;;;;;;;9.95;2.95;;;14.40;99.90;;;;;;6286813;22;20011;-91
2022/08/28 00:38:19;;;;;;;12.38;3.70;;;14.30;99.90;;;;;;6322721;22;20022;-91
2022/08/28 00:40:48;;;;;;;9.50;3.17;;;14.30;99.90;;;;;;6307754;22;20017;-90
2022/08/28 00:43:32;;;;;;;10.45;2.50;;;14.30;99.90;;;;;;6308120;22;20438;-91
2022/08/28 00:45:59;;;;;;;14.70;3.15;;;14.40;99.90;;;;;;6281811;22;20083;-91
2022/08/28 00:48:25;;;;;;;10.73;3.15;;;14.30;99.90;;;;;;6306901;22;20014;-91
2022/08/28 00:53:35;;;;;;;9.15;2.83;;;14.30;99.90;;;;;;6305294;22;20027;-91
2022/08/28 00:56:05;;;;;;;11.93;3.03;;;14.20;99.90;;;;;;6307544;22;20274;-91
2022/08/28 00:58:31;;;;;;;8.05;2.50;;;14.30;99.90;;;;;;6281438;22;20017;-91
2022/08/28 01:00:57;;;;;;;10.68;3.45;;;14.20;99.90;;;;;;6306882;22;20039;-91
2022/08/28 01:03:24;;;;;;;11.38;2.60;;;14.20;99.90;;;;;;6283109;22;20014;-92
2022/08/28 01:05:50;;;;;;;10.68;2.90;;;14.20;99.90;;;;;;6311132;22;20007;-92
2022/08/28 01:08:15;;;;;;;10.73;2.75;;;14.20;99.90;;;;;;6283129;22;20021;-92
2022/08/28 01:10:49;;;;;;;6.75;2.10;;;14.20;99.90;;;;;;6309252;22;20018;-92
2022/08/28 01:13:16;;;;;;;6.45;2.58;;;14.10;99.90;;;;;;6281551;22;20023;-91
2022/08/28 01:15:43;;;;;;;8.32;3.42;;;14.10;99.90;;;;;;6308760;22;20076;-91
2022/08/28 01:18:12;;;;;;;9.93;2.50;;;14.10;99.90;;;;;;6307477;22;20317;-91
2022/08/28 01:20:47;;;;;;;10.77;2.53;;;14.10;99.90;;;;;;6307240;22;20018;-92
2022/08/28 01:23:40;;;;;;;9.38;2.45;;;14.10;99.90;;;;;;6333803;22;20014;-92
2022/08/28 01:26:05;;;;;;;11.02;2.88;;;14.00;99.90;;;;;;6306392;22;20447;-92
2022/08/28 01:28:32;;;;;;;9.00;2.75;;;14.00;99.90;;;;;;6281369;22;20084;-92
2022/08/28 01:30:58;;;;;;;7.63;2.90;;;14.00;99.90;;;;;;6305909;22;20111;-91
2022/08/28 01:33:23;;;;;;;8.43;2.95;;;14.00;99.90;;;;;;6280368;22;20018;-91
2022/08/28 01:35:49;;;;;;;8.38;2.80;;;14.00;99.90;;;;;;6282256;22;20371;-92
2022/08/28 03:24:18;;;;;;;6.55;2.05;;;13.70;99.90;;;;;;6332703;22;20165;-92
2022/08/28 03:26:45;;;;;;;6.95;2.10;;;13.70;99.90;;;;;;6283149;22;20011;-91
2022/08/28 03:29:11;;;;;;;8.30;2.40;;;13.70;99.90;;;;;;6308519;22;20398;-92
2022/08/28 03:31:37;;;;;;;7.95;2.33;;;13.70;99.90;;;;;;6307998;22;20015;-91
2022/08/28 03:34:05;;;;;;;8.77;2.20;;;13.70;99.90;;;;;;6280042;22;20542;-92
2022/08/28 03:36:32;;;;;;;7.82;2.15;;;13.60;99.90;;;;;;6335676;22;20006;-91
2022/08/28 03:39:00;;;;;;;8.82;2.88;;;13.60;99.90;;;;;;6311238;22;20006;-93
2022/08/28 03:41:28;;;;;;;7.68;2.08;;;13.60;99.90;;;;;;6309278;22;20135;-91
2022/08/28 03:43:58;;;;;;;6.70;1.85;;;13.60;99.90;;;;;;6281991;22;20613;-92
2022/08/28 03:46:25;;;;;;;6.95;2.20;;;13.60;99.90;;;;;;6335841;22;20014;-92
2022/08/28 03:48:52;;;;;;;9.02;2.05;;;13.60;99.90;;;;;;6284740;22;20076;-91
2022/08/28 03:51:24;;;;;;;7.75;2.03;;;13.50;99.90;;;;;;6280666;22;20411;-91
2022/08/28 03:53:51;;;;;;;7.33;2.30;;;13.60;99.90;;;;;;6304945;22;20018;-87
2022/08/28 03:56:21;;;;;;;7.50;2.10;;;13.60;99.90;;;;;;6282826;22;20038;-87
2022/08/28 03:58:50;;;;;;;8.40;2.28;;;13.50;99.90;;;;;;6310014;22;20011;-87
2022/08/28 04:01:16;;;;;;;9.80;2.72;;;13.60;99.90;;;;;;6336554;22;20019;-88
2022/08/28 04:03:41;;;;;;;7.25;2.05;;;13.60;99.90;;;;;;6309773;22;20030;-88
2022/08/28 04:06:07;;;;;;;7.55;2.15;;;13.60;99.90;;;;;;6308490;22;20023;-88
2022/08/28 05:55:15;;;;;;;11.60;2.20;;;16.10;99.90;;;;;;6323897;22;20211;-92
2022/08/28 05:57:41;;;;;;;6.50;2.15;;;16.20;99.90;;;;;;6282022;22;20027;-92
2022/08/28 06:00:11;;;;;;;9.52;2.53;;;16.20;99.90;;;;;;6279785;22;20042;-93
2022/08/28 06:02:37;;;;;;;6.53;2.20;;;16.30;99.90;;;;;;6308039;22;20089;-93
2022/08/28 06:05:03;;;;;;;6.68;1.80;;;16.40;99.90;;;;;;6282034;22;20038;-93
2022/08/28 06:52:36;;;;;;;8.43;1.98;;;17.90;99.90;;;;;;6295682;22;20022;31
2022/08/28 07:09:10;;;;;;;6.88;1.70;;;18.50;99.90;;;;;;6316966;22;20019;-89
2022/08/28 07:11:36;;;;;;;5.90;1.77;;;18.20;99.90;;;;;;6304499;22;20011;-90
2022/08/28 07:14:03;;;;;;;6.85;2.22;;;18.00;99.90;;;;;;6279712;22;20086;-90
2022/08/28 07:16:32;;;;;;;12.73;1.80;;;18.00;99.90;;;;;;6279322;22;20474;-90
2022/08/28 07:19:01;;;;;;;6.78;2.10;;;18.10;99.90;;;;;;6280903;22;20022;-91
2022/08/28 07:21:27;;;;;;;5.65;1.67;;;18.30;99.90;;;;;;6307313;22;20013;-91
2022/08/28 08:13:34;;;;;;;6.25;1.73;;;19.30;99.90;;;;;;6289951;22;20227;-87
2022/08/28 08:16:10;;;;;;;5.15;1.67;;;19.30;99.90;;;;;;6290435;22;20463;-89
2022/08/28 08:18:36;;;;;;;6.05;1.73;;;19.40;99.90;;;;;;6288698;22;20003;-87
2022/08/28 08:21:08;;;;;;;8.57;2.10;;;19.60;99.90;;;;;;6295372;22;20144;-88
2022/08/28 09:43:25;;;;;;;4.70;1.70;;;22.10;99.00;;;;;;6335464;22;20495;-84
2022/08/28 09:43:25;;;;;;;4.72;1.65;;;22.00;99.10;;;;;;6338995;22;20010;-85
2022/08/28 09:46:22;;;;;;;5.03;1.70;;;21.70;98.80;;;;;;6287760;22;20006;-85
2022/08/28 09:48:52;;;;;;;6.25;1.98;;;21.50;98.90;;;;;;6298049;22;20030;-85
2022/08/28 09:51:20;;;;;;;4.53;1.73;;;21.40;99.10;;;;;;6312727;22;20148;-85
2022/08/28 09:53:55;;;;;;;5.22;1.65;;;21.30;99.10;;;;;;6287474;22;20015;-85
2022/08/28 09:56:33;;;;;;;6.25;2.00;;;21.30;99.60;;;;;;6286703;22;20167;-85
2022/08/28 09:59:07;;;;;;;7.40;2.00;;;21.10;99.50;;;;;;6286556;22;20439;-85
2022/08/28 10:01:54;;;;;;;6.53;2.55;;;21.00;99.90;;;;;;6285817;22;20428;-85
2022/08/28 10:04:42;;;;;;;5.57;1.65;;;20.80;99.90;;;;;;6286082;22;20015;-85
2022/08/28 10:07:22;;;;;;;5.90;1.70;;;20.60;99.80;;;;;;6286417;22;20461;-85
2022/08/28 10:41:24;;;;;;;3.92;1.95;;;21.40;97.90;;;;;;6267649;22;20026;-91
2022/08/28 10:43:54;;;;;;;6.55;1.70;;;21.20;98.50;;;;;;6255835;22;20016;-91
2022/08/28 10:46:38;;;;;;;4.20;1.70;;;21.00;98.30;;;;;;6256126;22;20015;-92
2022/08/28 10:49:22;;;;;;;5.15;1.60;;;21.00;98.90;;;;;;6282004;22;20077;-91
2022/08/28 10:51:54;;;;;;;3.22;1.60;;;21.10;98.30;;;;;;6229005;22;20110;-91
2022/08/28 11:09:52;;;;;;;4.93;1.45;;;22.10;96.50;;;;;;6322594;22;20015;-90
2022/08/28 11:12:18;;;;;;;5.50;1.58;;;22.10;95.90;;;;;;6284104;22;20019;-92
2022/08/28 11:14:48;;;;;;;5.32;1.60;;;22.00;96.20;;;;;;6286757;22;20014;-91
2022/08/28 11:17:26;;;;;;;8.77;2.10;;;22.00;95.10;;;;;;6285109;22;20037;-91
2022/08/28 11:20:17;;;;;;;4.18;2.10;;;22.10;95.70;;;;;;6285100;22;20014;-91
2022/08/28 11:23:09;;;;;;;4.55;1.65;;;22.40;95.60;;;;;;6312700;22;20332;-91
2022/08/28 11:25:44;;;;;;;5.88;1.88;;;22.60;94.60;;;;;;6306713;22;20015;-84
2022/08/28 11:28:24;;;;;;;4.72;1.77;;;22.50;94.10;;;;;;6256067;22;20117;-84
2022/08/28 11:31:02;;;;;;;4.13;1.73;;;22.40;94.60;;;;;;6284472;22;20017;-84
2022/08/28 11:33:34;;;;;;;3.85;1.55;;;22.50;94.90;;;;;;6259719;22;20026;-84
2022/08/28 11:36:00;;;;;;;6.13;1.93;;;22.50;92.80;;;;;;6257116;22;20015;-85
2022/08/28 11:41:25;;;;;;;5.32;1.80;;;22.50;95.10;;;;;;6341279;22;20351;-89
2022/08/28 11:44:12;;;;;;;4.70;1.83;;;22.50;94.90;;;;;;6284316;22;20018;-89
2022/08/28 11:46:45;;;;;;;4.88;1.73;;;22.50;94.90;;;;;;6260112;22;20015;-88
2022/08/28 11:49:25;;;;;;;4.65;1.50;;;22.30;95.00;;;;;;6260356;22;20035;-88
2022/08/28 11:52:21;;;;;;;5.63;1.60;;;22.10;94.60;;;;;;6260103;22;20046;-87
2022/08/28 11:55:09;;;;;;;4.25;1.63;;;21.90;94.60;;;;;;6286327;22;20071;-91
2022/08/28 11:57:53;;;;;;;4.70;1.58;;;22.00;94.70;;;;;;6258654;22;20018;-90
2022/08/28 12:00:22;;;;;;;4.55;1.35;;;22.10;94.40;;;;;;6285372;22;20015;-90
2022/08/28 12:03:05;;;;;;;7.55;1.60;;;22.20;94.90;;;;;;6258844;22;20011;-89
2022/08/28 12:05:31;;;;;;;5.38;1.33;;;22.40;95.00;;;;;;6285424;22;20112;-90
2022/08/28 12:07:59;;;;;;;7.28;1.50;;;22.70;95.50;;;;;;6260982;22;20098;-89
2022/08/28 12:10:25;;;;;;;4.15;1.50;;;22.70;95.10;;;;;;6258017;22;20008;-90
2022/08/28 12:12:59;;;;;;;4.70;1.50;;;22.40;94.40;;;;;;6260227;22;20068;-90
2022/08/28 12:15:31;;;;;;;4.57;1.55;;;22.10;94.30;;;;;;6315548;22;20015;-90
2022/08/28 12:18:11;;;;;;;4.30;1.67;;;22.00;95.30;;;;;;6261351;22;20070;-90
2022/08/28 12:20:49;;;;;;;6.80;1.80;;;21.80;95.20;;;;;;6286293;22;20137;-90
2022/08/28 12:54:26;;;;;;;6.28;2.10;;;22.90;95.50;;;;;;6275506;22;20051;-89
2022/08/28 12:56:51;;;;;;;4.75;1.42;;;22.70;95.90;;;;;;6273378;22;20026;-85
2022/08/28 12:59:34;;;;;;;6.03;1.80;;;22.50;95.90;;;;;;6244917;22;20649;-85
2022/08/28 13:02:19;;;;;;;6.28;1.80;;;22.30;96.50;;;;;;6214113;23;20467;-86
2022/08/28 13:05:09;;;;;;;3.83;1.52;;;22.10;96.40;;;;;;6249777;22;20008;-85
2022/08/28 13:07:44;;;;;;;5.88;2.00;;;22.00;97.20;;;;;;6229592;23;20016;-85
2022/08/28 13:10:23;;;;;;;4.65;1.65;;;21.90;97.60;;;;;;6256355;22;20110;-86
2022/08/28 13:13:18;;;;;;;5.45;1.60;;;21.90;97.70;;;;;;6281329;22;20015;-86
2022/08/28 13:16:00;;;;;;;8.85;1.95;;;22.10;98.70;;;;;;6273189;22;20007;-87
2022/08/28 13:18:56;;;;;;;8.32;1.80;;;22.20;97.70;;;;;;6282274;22;20011;-86
2022/08/28 13:21:28;;;;;;;7.85;1.90;;;22.20;97.90;;;;;;6184434;22;20440;-86
2022/08/28 14:09:11;;;;;;;6.20;1.85;;;22.10;98.10;;;;;;6263844;22;20020;-94
2022/08/28 14:28:15;;;;;;;5.63;1.70;;;21.90;98.10;;;;;;6291216;22;19915;-92
2022/08/28 14:30:47;;;;;;;6.45;1.90;;;21.90;98.40;;;;;;6293373;22;20025;-92
2022/08/28 14:33:15;;;;;;;5.20;1.83;;;21.90;98.50;;;;;;6263427;22;20456;-93
2022/08/28 14:35:44;;;;;;;5.82;1.75;;;21.90;98.50;;;;;;6262367;22;20452;-91
2022/08/28 14:38:10;;;;;;;2.65;1.30;;;21.90;99.20;;;;;;6294794;22;20006;-91
2022/08/28 15:41:43;;;;;;;6.53;1.65;;;20.60;99.90;;;;;;6306704;22;20019;-87
2022/08/28 15:44:09;;;;;;;4.68;1.40;;;20.60;99.90;;;;;;6256259;22;20015;-89
2022/08/28 15:46:34;;;;;;;8.32;1.95;;;20.50;99.90;;;;;;6257126;22;20320;-88
2022/08/28 15:49:02;;;;;;;4.15;1.40;;;20.50;99.90;;;;;;6256871;22;20011;-88
2022/08/28 15:51:28;;;;;;;6.85;2.50;;;20.40;99.90;;;;;;6270105;22;20014;-88
2022/08/28 15:53:54;;;;;;;7.93;1.63;;;20.30;99.90;;;;;;6282717;22;20340;-88
2022/08/28 16:09:16;;;;;;;6.82;2.35;;;20.20;99.90;;;;;;6241055;22;20023;-91
2022/08/28 16:55:56;;;;;;;6.35;1.73;;;19.70;99.90;;;;;;6289583;22;20022;-90
2022/08/28 16:58:22;;;;;;;7.70;1.77;;;19.80;99.90;;;;;;6300178;22;20007;-90
2022/08/28 17:00:48;;;;;;;5.65;1.70;;;19.80;99.90;;;;;;6272857;22;20015;-90
2022/08/28 17:03:14;;;;;;;4.25;1.67;;;19.90;99.90;;;;;;6270695;22;20016;-90
2022/08/28 17:05:40;;;;;;;6.32;1.88;;;19.90;99.90;;;;;;6248807;22;20038;-91
2022/08/28 17:08:06;;;;;;;9.07;1.58;;;19.90;99.90;;;;;;6246525;22;20003;-89
2022/08/28 17:10:34;;;;;;;7.80;2.30;;;19.70;99.90;;;;;;6272024;22;20114;-89
2022/08/28 17:13:00;;;;;;;6.15;1.70;;;19.60;99.90;;;;;;6263748;22;20011;-90
2022/08/28 17:15:28;;;;;;;5.28;1.70;;;19.50;99.90;;;;;;6246941;22;20019;-90
2022/08/28 17:17:54;;;;;;;5.05;1.80;;;19.30;99.90;;;;;;6271202;22;20103;-89
2022/08/28 17:23:04;;;;;;;6.95;1.70;;;19.20;99.90;;;;;;6268788;22;20018;-90
2022/08/28 17:25:30;;;;;;;7.28;1.90;;;19.10;99.90;;;;;;6246187;22;20441;-89
2022/08/28 17:27:59;;;;;;;5.15;2.20;;;19.10;99.90;;;;;;6246791;22;20019;-90
2022/08/28 17:30:25;;;;;;;8.00;1.98;;;18.90;99.90;;;;;;6271447;22;20019;-89
2022/08/28 17:32:52;;;;;;;7.32;1.80;;;18.80;99.90;;;;;;6273868;22;20026;-88
2022/08/28 17:35:17;;;;;;;5.47;1.80;;;18.80;99.90;;;;;;6300933;22;20019;-89
2022/08/28 17:37:44;;;;;;;4.40;1.55;;;18.70;99.90;;;;;;6272845;22;20541;-89
2022/08/28 17:40:13;;;;;;;4.60;1.50;;;18.70;99.90;;;;;;6246378;22;20023;-88
2022/08/28 17:42:41;;;;;;;6.50;1.85;;;18.60;99.90;;;;;;6270712;22;20080;-90
2022/08/28 17:45:07;;;;;;;4.72;1.85;;;18.50;99.90;;;;;;6266456;22;20031;-89
2022/08/28 17:47:33;;;;;;;6.22;1.73;;;18.50;99.90;;;;;;6297380;22;20022;-89
2022/08/28 17:50:00;;;;;;;4.68;1.67;;;18.40;99.90;;;;;;6273313;22;20015;-90
2022/08/28 17:52:27;;;;;;;6.22;1.50;;;18.30;99.90;;;;;;6248318;22;20059;-90
2022/08/28 19:41:33;;;;;;;7.90;2.95;;;17.20;99.90;;;;;;6272462;22;20030;-88
2022/08/28 19:44:02;;;;;;;7.97;2.45;;;17.20;99.90;;;;;;6284100;22;20015;-89
2022/08/28 19:46:28;;;;;;;6.05;2.50;;;17.20;99.90;;;;;;6225195;22;20316;-89
2022/08/28 19:48:55;;;;;;;11.13;3.15;;;17.20;99.90;;;;;;6275686;22;20090;-89
2022/08/28 19:51:22;;;;;;;5.00;2.55;;;17.20;99.90;;;;;;6282465;22;20127;-89
2022/08/28 19:53:49;;;;;;;8.45;3.38;;;17.20;99.90;;;;;;6283342;22;20069;-88
2022/08/28 20:24:44;;;;;;;8.35;3.90;;;17.10;99.90;;;;;;6258223;22;20023;-85
2022/08/28 22:27:45;;;;;;;6.45;3.40;;;16.70;99.90;;;;;;6286429;22;20019;-89
2022/08/28 22:30:11;;;;;;;8.10;3.90;;;16.70;99.90;;;;;;6276587;22;20015;-89
2022/08/28 22:32:37;;;;;;;8.18;3.67;;;16.80;99.90;;;;;;6252820;22;20023;-90
2022/08/28 22:35:04;;;;;;;8.77;3.78;;;16.70;99.90;;;;;;6252860;22;20072;-89
2022/08/28 22:37:29;;;;;;;7.95;3.95;;;16.80;99.90;;;;;;6255828;22;20014;-89
2022/08/28 22:39:56;;;;;;;10.13;3.80;;;16.70;99.90;;;;;;6256960;22;20345;-89
2022/08/28 22:57:50;;;;;;;9.83;3.60;;;16.70;99.90;;;;;;6218998;23;20098;-93
2022/08/28 23:00:22;;;;;;;9.95;4.03;;;16.60;99.90;;;;;;6191541;23;20012;-92
2022/08/28 23:02:49;;;;;;;6.85;3.80;;;16.70;99.90;;;;;;6166197;23;20013;-93
2022/08/28 23:05:15;;;;;;;8.23;3.40;;;16.70;99.90;;;;;;6166938;23;20009;-93
2022/08/28 23:07:41;;;;;;;7.07;3.20;;;16.60;99.90;;;;;;6167568;23;20009;-93
2022/08/28 23:10:08;;;;;;;7.32;3.50;;;16.60;99.90;;;;;;6167819;23;20017;-94
